Time;durP1;ratioP1;P1;durP2;ratioP2;P2;SDS_P1;SDS_P2;PMS_P1;PMS_P2;Temp;Humidity;BMP_temperature;BMP_pressure;BME280_temperature;BME280_humidity;BME280_pressure;Samples;Min_cycle;Max_cycle;Signal;HPM_P1;HPM_P2
2021/07/19 00:00:02;;;;;;;3.57;0.70;;;12.30;99.90;;;;;;5072017;28;20180;-67
2021/07/19 00:02:29;;;;;;;1.00;0.80;;;12.40;99.90;;;;;;5060348;28;20167;-72
2021/07/19 00:04:57;;;;;;;1.07;0.90;;;12.70;99.90;;;;;;5072553;28;20715;-65
2021/07/19 00:07:24;;;;;;;1.33;0.77;;;12.70;99.90;;;;;;5073915;28;20266;-67
2021/07/19 00:09:52;;;;;;;1.10;0.60;;;12.80;99.90;;;;;;5072585;28;20179;-64
2021/07/19 00:12:19;;;;;;;0.80;0.70;;;12.90;99.90;;;;;;5068719;28;20187;-65
2021/07/19 00:14:48;;;;;;;1.00;0.80;;;12.90;99.90;;;;;;5062629;28;20551;-66
2021/07/19 00:17:17;;;;;;;1.40;0.80;;;13.00;99.90;;;;;;5072020;28;20183;-64
2021/07/19 00:19:46;;;;;;;1.07;0.87;;;13.00;99.90;;;;;;5065583;28;20190;-71
2021/07/19 00:22:13;;;;;;;1.17;0.80;;;12.90;99.90;;;;;;5072165;28;20221;-64
2021/07/19 00:24:41;;;;;;;1.83;0.80;;;12.90;99.90;;;;;;5067706;28;20219;-67
2021/07/19 00:27:08;;;;;;;3.53;0.93;;;12.90;99.90;;;;;;5072608;28;20190;-63
2021/07/19 00:29:36;;;;;;;0.70;0.70;;;12.80;99.90;;;;;;5058089;28;20583;-65
2021/07/19 00:32:04;;;;;;;0.70;0.70;;;12.90;99.90;;;;;;5082915;28;20674;-63
2021/07/19 00:34:31;;;;;;;1.60;0.83;;;13.20;99.90;;;;;;5054157;28;20194;-69
2021/07/19 00:36:59;;;;;;;0.70;0.70;;;13.40;99.90;;;;;;5072653;28;20183;-66
2021/07/19 00:39:27;;;;;;;0.50;0.50;;;13.50;99.90;;;;;;5057600;28;20541;-64
2021/07/19 00:41:55;;;;;;;0.77;0.70;;;13.30;99.90;;;;;;5071667;28;20532;-63
2021/07/19 00:44:23;;;;;;;0.87;0.70;;;13.40;99.90;;;;;;5068529;28;20176;-64
2021/07/19 00:46:51;;;;;;;0.53;0.50;;;13.40;99.90;;;;;;5069752;28;20187;-67
2021/07/19 00:49:22;;;;;;;0.60;0.50;;;13.50;99.90;;;;;;5063690;28;20176;-64
2021/07/19 00:51:49;;;;;;;3.97;0.63;;;13.40;99.90;;;;;;5066614;28;20186;-65
2021/07/19 00:54:19;;;;;;;1.10;0.63;;;13.40;99.90;;;;;;5071282;28;20207;-62
2021/07/19 00:56:49;;;;;;;2.73;0.60;;;13.30;99.90;;;;;;5056273;28;20234;-68
2021/07/19 00:59:18;;;;;;;1.37;0.73;;;13.50;99.90;;;;;;5065167;28;20178;-69
2021/07/19 01:01:48;;;;;;;0.70;0.60;;;13.60;99.90;;;;;;5065821;28;20252;-68
2021/07/19 01:04:31;;;;;;;;;;;;;;;;;;;;;
2021/07/19 01:07:04;;;;;;;0.60;0.60;;;13.70;99.70;;;;;;5050979;28;20198;-74
2021/07/19 01:09:32;;;;;;;3.23;0.60;;;13.70;99.60;;;;;;5058481;28;20232;-65
2021/07/19 01:12:02;;;;;;;1.33;0.80;;;13.70;99.70;;;;;;5061364;28;20677;-63
2021/07/19 01:14:30;;;;;;;1.27;0.90;;;13.80;99.90;;;;;;5071427;28;20206;-63
2021/07/19 01:16:57;;;;;;;0.90;0.70;;;14.00;99.40;;;;;;5068442;28;20697;-64
2021/07/19 01:19:29;;;;;;;0.80;0.67;;;14.00;99.00;;;;;;5063590;28;20207;-68
2021/07/19 01:22:12;;;;;;;0.87;0.60;;;14.10;99.10;;;;;;5068472;28;20190;-65
2021/07/19 01:25:15;;;;;;;0.97;0.63;;;14.20;98.40;;;;;;5065172;28;20673;-77
2021/07/19 01:27:54;;;;;;;0.70;0.63;;;14.20;98.30;;;;;;5064460;28;20187;-66
2021/07/19 01:30:21;;;;;;;2.63;0.60;;;14.30;98.40;;;;;;5070919;28;20187;-72
2021/07/19 01:32:50;;;;;;;1.33;0.83;;;14.30;98.20;;;;;;5070947;28;20198;-67
2021/07/19 01:35:18;;;;;;;0.70;0.60;;;14.30;98.10;;;;;;5066098;28;20231;-66
2021/07/19 01:37:46;;;;;;;0.97;0.73;;;14.30;98.20;;;;;;5072001;28;20187;-73
2021/07/19 01:40:16;;;;;;;1.13;0.60;;;14.30;98.60;;;;;;5071984;28;20197;-66
2021/07/19 01:42:45;;;;;;;1.00;0.70;;;14.50;98.40;;;;;;5057637;28;20678;-68
2021/07/19 01:45:13;;;;;;;1.57;0.70;;;14.50;98.50;;;;;;5071203;28;20206;-68
2021/07/19 01:47:41;;;;;;;0.60;0.60;;;14.60;97.80;;;;;;5073084;28;20184;-72
2021/07/19 01:50:10;;;;;;;0.83;0.50;;;14.50;98.20;;;;;;5063430;28;20261;-67
2021/07/19 01:52:39;;;;;;;1.07;0.60;;;14.50;98.00;;;;;;5044652;28;20237;-66
2021/07/19 01:55:07;;;;;;;0.67;0.50;;;14.40;98.00;;;;;;5057399;28;20303;-64
2021/07/19 01:57:36;;;;;;;1.57;0.63;;;14.30;98.00;;;;;;5077583;28;20280;-63
2021/07/19 02:00:07;;;;;;;0.67;0.67;;;14.40;98.10;;;;;;5067886;28;20192;-64
2021/07/19 02:02:37;;;;;;;1.37;0.80;;;14.50;98.00;;;;;;5074933;28;20211;-75
2021/07/19 02:05:13;;;;;;;0.80;0.77;;;14.60;97.70;;;;;;5057405;28;20194;-65
2021/07/19 02:07:41;;;;;;;1.33;0.60;;;14.70;97.40;;;;;;5055312;28;20207;-64
2021/07/19 02:10:11;;;;;;;0.70;0.60;;;14.60;97.50;;;;;;5055129;28;20184;-63
2021/07/19 02:12:42;;;;;;;1.03;0.60;;;14.60;97.20;;;;;;5074213;28;20194;-74
2021/07/19 02:15:18;;;;;;;0.60;0.60;;;14.50;97.20;;;;;;5072374;28;20218;-67
2021/07/19 02:17:49;;;;;;;0.77;0.50;;;14.60;96.90;;;;;;5054991;28;20199;-67
2021/07/19 02:20:18;;;;;;;0.70;0.70;;;14.80;97.40;;;;;;5070338;28;20685;-68
2021/07/19 02:22:47;;;;;;;3.00;0.80;;;15.10;97.20;;;;;;5075215;28;20179;-63
2021/07/19 02:25:16;;;;;;;1.23;0.77;;;15.20;96.40;;;;;;5074649;28;20341;-71
2021/07/19 02:27:45;;;;;;;0.80;0.70;;;15.20;96.20;;;;;;5074847;28;20266;-72
2021/07/19 02:30:16;;;;;;;1.23;0.60;;;15.10;96.40;;;;;;5074323;28;20286;-64
2021/07/19 02:32:50;;;;;;;1.03;0.80;;;15.20;96.30;;;;;;5074665;28;20207;-75
2021/07/19 02:35:18;;;;;;;0.60;0.60;;;15.30;96.30;;;;;;5074440;28;20223;-68
2021/07/19 02:37:48;;;;;;;1.00;0.80;;;15.50;95.90;;;;;;5074517;28;20179;-63
2021/07/19 02:40:18;;;;;;;1.87;0.70;;;15.70;95.40;;;;;;5073721;28;20194;-65
2021/07/19 02:43:07;;;;;;;1.83;0.80;;;16.30;95.00;;;;;;5073597;28;20208;-67
2021/07/19 02:45:47;;;;;;;0.70;0.70;;;16.60;93.70;;;;;;5074452;28;20240;-66
2021/07/19 02:48:16;;;;;;;1.20;0.70;;;16.90;92.80;;;;;;5072562;28;20751;-66
2021/07/19 02:50:44;;;;;;;1.10;0.80;;;17.00;92.20;;;;;;5065398;28;20188;-65
2021/07/19 02:53:17;;;;;;;1.60;0.57;;;16.70;92.60;;;;;;5060423;28;20187;-76
2021/07/19 02:55:46;;;;;;;1.07;0.63;;;16.90;91.80;;;;;;5072590;28;20550;-64
2021/07/19 02:58:18;;;;;;;1.23;0.60;;;16.80;92.30;;;;;;5073466;28;20537;-73
2021/07/19 03:00:47;;;;;;;0.80;0.57;;;16.60;92.90;;;;;;5072011;28;20247;-73
2021/07/19 03:03:25;;;;;;;1.13;0.67;;;16.50;91.90;;;;;;5066956;28;20191;-63
2021/07/19 03:06:01;;;;;;;2.20;0.80;;;16.40;93.10;;;;;;5062598;28;20188;-70
2021/07/19 03:08:35;;;;;;;2.40;0.70;;;16.30;93.30;;;;;;5073959;28;20256;-66
2021/07/19 03:11:11;;;;;;;0.80;0.70;;;16.40;92.80;;;;;;5073644;28;20292;-70
2021/07/19 03:13:42;;;;;;;0.83;0.60;;;16.70;92.70;;;;;;5073371;28;20186;-70
2021/07/19 03:16:10;;;;;;;0.60;0.60;;;17.30;92.20;;;;;;5071833;28;20183;-64
2021/07/19 03:18:40;;;;;;;0.73;0.53;;;17.20;91.60;;;;;;5073583;28;20206;-63
2021/07/19 03:21:08;;;;;;;1.67;0.60;;;16.90;92.10;;;;;;5072946;28;20281;-65
2021/07/19 03:23:38;;;;;;;0.70;0.60;;;16.50;92.40;;;;;;5073440;28;20227;-69
2021/07/19 03:26:06;;;;;;;1.20;0.57;;;16.70;92.80;;;;;;5072774;28;20245;-66
2021/07/19 03:28:35;;;;;;;0.70;0.50;;;16.70;92.50;;;;;;5072667;28;20211;-63
2021/07/19 03:31:04;;;;;;;1.43;0.50;;;16.80;91.80;;;;;;5072997;28;20178;-65
2021/07/19 03:33:32;;;;;;;0.67;0.60;;;16.70;91.50;;;;;;5072244;28;20186;-69
2021/07/19 03:36:00;;;;;;;0.97;0.60;;;16.70;91.30;;;;;;5072938;28;20238;-69
2021/07/19 03:38:28;;;;;;;1.60;0.60;;;16.70;91.40;;;;;;5073089;28;20178;-66
2021/07/19 03:40:57;;;;;;;3.53;0.63;;;16.70;91.20;;;;;;5072927;28;20659;-68
2021/07/19 03:43:25;;;;;;;0.90;0.53;;;16.90;91.70;;;;;;5072969;28;20206;-62
2021/07/19 03:45:52;;;;;;;0.63;0.47;;;17.40;90.80;;;;;;5077441;28;20268;-66
2021/07/19 03:48:20;;;;;;;0.50;0.40;;;17.40;89.40;;;;;;5075568;28;20309;-62
2021/07/19 03:50:51;;;;;;;1.27;0.50;;;17.70;88.90;;;;;;5052711;28;20187;-63
2021/07/19 03:53:18;;;;;;;1.90;0.70;;;17.60;89.00;;;;;;5068854;28;20180;-66
2021/07/19 03:55:48;;;;;;;1.70;0.50;;;17.50;87.80;;;;;;5075149;28;20215;-64
2021/07/19 03:58:16;;;;;;;0.53;0.50;;;17.40;87.70;;;;;;5072103;28;20187;-67
2021/07/19 04:00:44;;;;;;;0.40;0.40;;;17.30;87.00;;;;;;5072760;28;20190;-62
2021/07/19 04:03:27;;;;;;;1.13;0.50;;;17.00;87.40;;;;;;5072432;28;20179;-63
2021/07/19 04:06:00;;;;;;;2.00;0.80;;;17.20;87.70;;;;;;5072828;28;20217;-64
2021/07/19 04:08:32;;;;;;;1.87;0.50;;;17.40;88.40;;;;;;5069493;28;20190;-65
2021/07/19 04:11:00;;;;;;;0.47;0.47;;;17.40;87.30;;;;;;5071999;28;20225;-64
2021/07/19 04:13:29;;;;;;;0.50;0.50;;;17.80;86.20;;;;;;5072096;28;20190;-67
2021/07/19 04:15:59;;;;;;;0.60;0.57;;;17.40;87.50;;;;;;5071389;28;20218;-62
2021/07/19 04:18:26;;;;;;;0.40;0.37;;;17.00;87.50;;;;;;5072067;28;20182;-62
2021/07/19 04:20:56;;;;;;;0.93;0.50;;;16.70;89.00;;;;;;5070456;28;20251;-68
2021/07/19 04:23:24;;;;;;;0.97;0.77;;;16.50;90.20;;;;;;5068945;28;20655;-65
2021/07/19 04:25:52;;;;;;;2.53;0.57;;;16.50;90.80;;;;;;5071641;28;20206;-63
2021/07/19 04:28:21;;;;;;;0.60;0.53;;;16.30;91.10;;;;;;5063741;28;20245;-67
2021/07/19 04:30:51;;;;;;;1.83;0.70;;;16.10;91.10;;;;;;5068556;28;20182;-65
2021/07/19 04:33:23;;;;;;;1.20;0.53;;;16.00;91.50;;;;;;5069495;28;20194;-78
2021/07/19 04:35:51;;;;;;;3.17;0.60;;;15.90;91.30;;;;;;5071068;28;20218;-66
2021/07/19 04:38:23;;;;;;;1.30;0.70;;;15.80;91.70;;;;;;5070439;28;20181;-66
2021/07/19 04:40:56;;;;;;;0.83;0.60;;;16.00;92.00;;;;;;5071637;28;20191;-68
2021/07/19 04:43:26;;;;;;;2.20;0.47;;;16.80;91.40;;;;;;5071034;28;20225;-63
2021/07/19 04:45:54;;;;;;;1.30;0.53;;;17.70;88.70;;;;;;5053526;28;20183;-63
2021/07/19 04:48:21;;;;;;;0.87;0.60;;;18.40;84.60;;;;;;5069655;28;20200;-66
2021/07/19 04:50:50;;;;;;;0.73;0.43;;;18.40;83.70;;;;;;5068435;28;20650;-63
2021/07/19 04:53:17;;;;;;;0.67;0.40;;;17.90;85.10;;;;;;5062521;28;20225;-63
2021/07/19 04:55:51;;;;;;;0.50;0.40;;;17.50;86.30;;;;;;5067241;28;20240;-63
2021/07/19 04:58:22;;;;;;;0.80;0.60;;;16.90;88.80;;;;;;5068351;28;20778;-78
2021/07/19 05:01:06;;;;;;;1.07;0.50;;;16.60;90.20;;;;;;5061626;28;20546;-63
2021/07/19 05:03:37;;;;;;;0.40;0.40;;;16.40;90.80;;;;;;5071257;28;20641;-64
2021/07/19 05:06:06;;;;;;;0.67;0.50;;;16.40;91.10;;;;;;5071763;28;20178;-64
2021/07/19 05:08:34;;;;;;;1.37;0.60;;;16.50;90.60;;;;;;5065709;28;20181;-71
2021/07/19 05:11:02;;;;;;;2.00;0.50;;;16.00;91.10;;;;;;5080194;28;20173;-62
2021/07/19 05:13:32;;;;;;;1.07;0.60;;;16.00;91.40;;;;;;5078001;28;20170;-65
2021/07/19 05:16:00;;;;;;;0.63;0.60;;;16.00;91.40;;;;;;5074920;28;20213;-62
2021/07/19 05:18:28;;;;;;;0.50;0.50;;;16.10;91.90;;;;;;5074841;28;20184;-62
2021/07/19 05:20:56;;;;;;;0.50;0.50;;;16.10;91.90;;;;;;5075356;28;20303;-63
2021/07/19 05:23:25;;;;;;;0.53;0.53;;;16.00;91.40;;;;;;5075669;28;20168;-66
2021/07/19 05:25:53;;;;;;;0.77;0.60;;;15.90;92.10;;;;;;5067022;28;20210;-63
2021/07/19 05:28:21;;;;;;;0.97;0.50;;;15.80;92.10;;;;;;5073797;28;20214;-65
2021/07/19 05:30:51;;;;;;;1.00;0.63;;;15.70;92.70;;;;;;5072864;28;20187;-66
2021/07/19 05:33:22;;;;;;;0.50;0.50;;;15.70;92.90;;;;;;5070765;28;20183;-79
2021/07/19 05:35:49;;;;;;;0.97;0.60;;;15.60;92.30;;;;;;5072978;28;20220;-63
2021/07/19 05:38:18;;;;;;;0.60;0.60;;;15.60;92.80;;;;;;5073644;28;20270;-63
2021/07/19 05:40:45;;;;;;;0.87;0.60;;;15.50;92.10;;;;;;5072856;28;20187;-66
2021/07/19 05:43:13;;;;;;;0.50;0.50;;;15.50;92.20;;;;;;5074729;28;20187;-63
2021/07/19 05:45:40;;;;;;;0.60;0.43;;;15.50;91.70;;;;;;5074042;28;20189;-64
2021/07/19 05:48:08;;;;;;;1.20;0.90;;;15.40;91.50;;;;;;5074297;28;20296;-63
2021/07/19 05:50:37;;;;;;;1.33;0.50;;;15.40;91.60;;;;;;5072896;28;20183;-64
2021/07/19 05:53:06;;;;;;;3.33;1.10;;;15.30;91.60;;;;;;5071848;28;20193;-69
2021/07/19 05:55:34;;;;;;;2.57;0.70;;;15.20;91.40;;;;;;5071883;28;20685;-65
2021/07/19 05:58:03;;;;;;;1.13;0.60;;;15.20;91.30;;;;;;5073975;28;20179;-64
2021/07/19 06:00:31;;;;;;;0.97;0.73;;;15.10;91.50;;;;;;5068776;28;20637;-66
2021/07/19 06:02:58;;;;;;;0.73;0.67;;;15.10;91.30;;;;;;5070470;28;20187;-73
2021/07/19 06:05:26;;;;;;;1.23;1.13;;;15.00;91.60;;;;;;5073492;28;20184;-65
2021/07/19 06:07:53;;;;;;;1.73;0.60;;;15.00;91.70;;;;;;5073656;28;20227;-63
2021/07/19 06:10:21;;;;;;;0.90;0.63;;;14.90;91.50;;;;;;5074236;28;20190;-64
2021/07/19 06:12:49;;;;;;;2.77;0.73;;;14.90;91.60;;;;;;5078188;28;20174;-65
2021/07/19 06:15:17;;;;;;;1.10;0.60;;;14.80;91.90;;;;;;5073770;28;20253;-76
2021/07/19 06:17:44;;;;;;;4.30;0.97;;;14.80;91.70;;;;;;5056197;28;20195;-65
2021/07/19 06:20:19;;;;;;;1.30;0.90;;;14.70;91.60;;;;;;5071541;28;20209;-66
2021/07/19 06:22:47;;;;;;;0.67;0.67;;;14.70;91.80;;;;;;5067036;28;20194;-64
2021/07/19 06:25:16;;;;;;;0.73;0.60;;;14.70;91.90;;;;;;5073735;28;20228;-63
2021/07/19 06:27:44;;;;;;;2.03;0.73;;;14.70;91.90;;;;;;5074190;28;20547;-62
2021/07/19 06:30:13;;;;;;;1.40;0.80;;;14.60;91.90;;;;;;5054476;28;20259;-67
2021/07/19 06:32:41;;;;;;;1.00;0.80;;;14.60;92.20;;;;;;5072269;28;20517;-64
2021/07/19 06:35:09;;;;;;;1.10;0.60;;;14.60;92.40;;;;;;5074325;28;20219;-66
2021/07/19 06:37:37;;;;;;;2.17;0.80;;;14.60;92.10;;;;;;5074544;28;20217;-69
2021/07/19 06:40:06;;;;;;;1.57;0.70;;;14.50;92.20;;;;;;5074424;28;20687;-64
2021/07/19 06:42:34;;;;;;;1.37;0.70;;;14.50;92.60;;;;;;5074300;28;20182;-79
2021/07/19 06:45:01;;;;;;;1.37;0.53;;;14.50;92.20;;;;;;5074321;28;20179;-63
2021/07/19 06:47:29;;;;;;;0.70;0.60;;;14.50;91.80;;;;;;5073559;28;20182;-62
2021/07/19 06:49:59;;;;;;;1.73;0.60;;;14.50;91.90;;;;;;5069384;28;20190;-69
2021/07/19 06:52:27;;;;;;;2.37;0.70;;;14.40;92.10;;;;;;5072060;28;20183;-69
2021/07/19 06:54:54;;;;;;;0.67;0.60;;;14.40;92.20;;;;;;5072880;28;20272;-65
2021/07/19 06:57:22;;;;;;;1.53;0.70;;;14.40;92.10;;;;;;5066579;28;20207;-66
2021/07/19 06:59:49;;;;;;;0.67;0.60;;;14.40;92.40;;;;;;5069710;28;20191;-66
2021/07/19 07:02:17;;;;;;;1.53;0.70;;;14.30;92.30;;;;;;5069982;28;20588;-71
2021/07/19 07:04:45;;;;;;;4.30;0.80;;;14.20;92.50;;;;;;5071370;28;20577;-64
2021/07/19 07:07:12;;;;;;;1.20;0.60;;;14.20;92.90;;;;;;5072195;28;20541;-64
2021/07/19 07:09:40;;;;;;;0.73;0.70;;;14.10;92.90;;;;;;5072576;28;20172;-64
2021/07/19 07:12:07;;;;;;;0.47;0.47;;;14.10;92.90;;;;;;5072400;28;20620;-63
2021/07/19 07:14:35;;;;;;;1.53;0.93;;;14.10;93.10;;;;;;5072376;28;20199;-63
2021/07/19 07:17:03;;;;;;;3.90;0.87;;;14.00;93.30;;;;;;5072181;28;20194;-62
2021/07/19 07:19:34;;;;;;;1.03;0.73;;;14.00;93.60;;;;;;5072051;28;20202;-68
2021/07/19 07:22:01;;;;;;;4.30;1.00;;;13.90;93.70;;;;;;5071186;28;20274;-66
2021/07/19 07:24:28;;;;;;;2.93;1.10;;;13.90;93.40;;;;;;5072208;28;20226;-72
2021/07/19 07:26:56;;;;;;;1.73;1.13;;;13.90;93.40;;;;;;5070890;28;20538;-62
2021/07/19 07:29:23;;;;;;;2.53;1.03;;;13.80;93.60;;;;;;5073651;28;20198;-63
2021/07/19 07:31:51;;;;;;;1.93;1.20;;;13.80;93.80;;;;;;5079828;28;20634;-67
2021/07/19 07:34:19;;;;;;;1.40;1.30;;;13.70;93.80;;;;;;5072866;28;20211;-73
2021/07/19 07:36:46;;;;;;;4.17;1.37;;;13.70;94.00;;;;;;5055663;28;20268;-65
2021/07/19 07:39:14;;;;;;;1.80;1.40;;;13.70;94.60;;;;;;5056297;28;20182;-79
2021/07/19 07:41:41;;;;;;;8.13;2.00;;;13.60;94.40;;;;;;5066486;28;20195;-71
2021/07/19 07:44:11;;;;;;;3.83;1.80;;;13.60;94.90;;;;;;5064912;28;20191;-64
2021/07/19 07:46:43;;;;;;;2.20;1.50;;;13.50;94.70;;;;;;5077888;28;20198;-70
2021/07/19 07:49:11;;;;;;;3.77;1.77;;;13.50;95.00;;;;;;5082517;28;20178;-72
2021/07/19 07:51:39;;;;;;;1.97;1.60;;;13.40;95.40;;;;;;5058012;28;20262;-65
2021/07/19 07:54:06;;;;;;;2.07;1.60;;;13.40;95.70;;;;;;5074215;28;20645;-63
2021/07/19 07:56:34;;;;;;;3.63;1.70;;;13.30;96.00;;;;;;5072005;28;20179;-63
2021/07/19 07:59:02;;;;;;;2.57;1.57;;;13.30;96.20;;;;;;5065309;28;20270;-67
2021/07/19 08:01:30;;;;;;;4.07;1.87;;;13.30;96.50;;;;;;5059639;28;20184;-64
2021/07/19 08:03:57;;;;;;;9.67;2.10;;;13.20;96.70;;;;;;5073009;28;20171;-62
2021/07/19 08:06:25;;;;;;;4.63;2.23;;;13.20;97.00;;;;;;5080841;28;20191;-76
2021/07/19 08:08:52;;;;;;;5.10;2.50;;;13.10;97.20;;;;;;5073661;28;20664;-68
2021/07/19 08:11:19;;;;;;;5.73;2.50;;;13.10;97.50;;;;;;5080243;28;20175;-63
2021/07/19 08:13:47;;;;;;;4.40;2.40;;;13.00;97.80;;;;;;5074857;28;20514;-70
2021/07/19 08:16:14;;;;;;;3.80;2.40;;;13.00;97.90;;;;;;5083377;28;20226;-71
2021/07/19 08:18:42;;;;;;;5.50;2.73;;;12.90;98.20;;;;;;5077000;28;20227;-63
2021/07/19 08:21:09;;;;;;;4.37;2.63;;;13.00;98.50;;;;;;5073563;28;20716;-64
2021/07/19 08:23:36;;;;;;;3.67;2.53;;;12.90;98.90;;;;;;5080799;28;20178;-69
2021/07/19 08:26:04;;;;;;;4.17;2.60;;;12.90;99.30;;;;;;5072650;28;20198;-66
2021/07/19 08:28:31;;;;;;;5.40;2.83;;;12.80;99.50;;;;;;5081038;28;20190;-66
2021/07/19 08:30:59;;;;;;;6.67;4.00;;;12.80;99.90;;;;;;5073134;28;20187;-65
2021/07/19 08:33:26;;;;;;;6.60;4.50;;;12.70;99.90;;;;;;5076866;28;20205;-62
2021/07/19 08:35:53;;;;;;;7.43;4.57;;;12.70;99.90;;;;;;5074865;28;20217;-64
2021/07/19 08:38:21;;;;;;;8.90;3.33;;;12.70;99.90;;;;;;5072670;28;20190;-71
2021/07/19 08:40:50;;;;;;;5.87;3.40;;;12.70;99.90;;;;;;5072077;28;20645;-68
2021/07/19 08:43:20;;;;;;;5.67;2.80;;;12.60;99.90;;;;;;5072501;28;20175;-64
2021/07/19 08:45:47;;;;;;;5.90;2.73;;;12.70;99.90;;;;;;5071627;28;20186;-73
2021/07/19 08:48:14;;;;;;;6.47;2.40;;;12.60;99.90;;;;;;5080057;28;20171;-70
2021/07/19 08:50:42;;;;;;;4.73;2.80;;;12.60;99.90;;;;;;5076303;28;20256;-70
2021/07/19 08:53:10;;;;;;;5.27;2.90;;;12.60;99.90;;;;;;5076658;28;20179;-71
2021/07/19 08:55:38;;;;;;;3.50;2.20;;;12.60;99.90;;;;;;5070638;28;20207;-77
2021/07/19 08:58:07;;;;;;;4.40;2.57;;;12.50;99.90;;;;;;5071592;28;20282;-63
2021/07/19 09:00:34;;;;;;;4.90;2.93;;;12.50;99.90;;;;;;5073781;28;20191;-69
2021/07/19 09:03:03;;;;;;;5.97;3.10;;;12.50;99.90;;;;;;5072306;28;20175;-71
2021/07/19 09:05:32;;;;;;;7.03;3.20;;;12.50;99.90;;;;;;5069734;28;20175;-77
2021/07/19 09:08:00;;;;;;;6.10;3.20;;;12.40;99.90;;;;;;5071993;28;20234;-64
2021/07/19 09:10:28;;;;;;;4.63;3.40;;;12.40;99.90;;;;;;5071463;28;20270;-64
2021/07/19 09:13:00;;;;;;;4.93;3.30;;;12.40;99.90;;;;;;5071791;28;20278;-65
2021/07/19 09:15:38;;;;;;;6.67;3.57;;;12.40;99.90;;;;;;5072165;28;20345;-67
2021/07/19 09:18:06;;;;;;;5.87;3.70;;;12.30;99.90;;;;;;5072674;28;20211;-70
2021/07/19 09:20:43;;;;;;;4.93;3.30;;;12.30;99.90;;;;;;5074924;28;20649;-70
2021/07/19 09:23:11;;;;;;;6.83;3.43;;;12.30;99.90;;;;;;5076335;28;20178;-67
2021/07/19 09:25:40;;;;;;;3.90;2.90;;;12.20;99.90;;;;;;5080474;28;20223;-71
2021/07/19 09:28:11;;;;;;;5.13;3.10;;;12.20;99.90;;;;;;5074303;28;20229;-70
2021/07/19 09:30:43;;;;;;;5.33;2.57;;;12.20;99.90;;;;;;5072033;28;20184;-68
2021/07/19 09:33:17;;;;;;;4.33;3.23;;;12.20;99.90;;;;;;5063692;28;20630;-63
2021/07/19 09:35:50;;;;;;;7.87;3.40;;;12.10;99.90;;;;;;5068129;28;20211;-66
2021/07/19 09:38:18;;;;;;;6.47;3.70;;;12.10;99.90;;;;;;5073726;28;20175;-63
2021/07/19 09:40:57;;;;;;;10.07;3.60;;;12.10;99.90;;;;;;5074667;28;20179;-71
2021/07/19 09:43:28;;;;;;;6.60;3.37;;;12.00;99.90;;;;;;5065310;28;20207;-68
2021/07/19 09:46:05;;;;;;;6.30;3.90;;;11.90;99.90;;;;;;5071255;28;20261;-71
2021/07/19 09:48:33;;;;;;;8.53;4.67;;;11.90;99.90;;;;;;5081431;28;20258;-66
2021/07/19 09:51:01;;;;;;;7.37;4.30;;;11.80;99.90;;;;;;5084200;28;20199;-62
2021/07/19 09:53:32;;;;;;;7.63;4.53;;;11.80;99.90;;;;;;5066231;28;20171;-63
2021/07/19 09:56:21;;;;;;;7.17;4.47;;;11.70;99.90;;;;;;5066922;28;20214;-68
2021/07/19 09:58:50;;;;;;;9.27;5.67;;;11.70;99.90;;;;;;5075184;28;20179;-74
2021/07/19 10:01:33;;;;;;;8.50;5.40;;;11.60;99.90;;;;;;5074820;28;20203;-68
2021/07/19 10:04:17;;;;;;;8.17;4.73;;;11.60;99.90;;;;;;5068702;28;20186;-64
2021/07/19 10:06:49;;;;;;;9.00;4.57;;;11.50;99.90;;;;;;5080696;28;20187;-67
2021/07/19 10:09:19;;;;;;;8.20;5.37;;;11.50;99.90;;;;;;5074851;28;20265;-71
2021/07/19 10:11:53;;;;;;;8.70;4.87;;;11.50;99.90;;;;;;5066100;28;20183;-70
2021/07/19 10:14:35;;;;;;;8.20;5.03;;;11.50;99.90;;;;;;5074483;28;20195;-70
2021/07/19 10:17:06;;;;;;;8.37;4.80;;;11.50;99.90;;;;;;5076246;28;20206;-67
2021/07/19 10:19:35;;;;;;;9.87;5.37;;;11.40;99.90;;;;;;5076689;28;20179;-66
2021/07/19 10:22:02;;;;;;;7.90;4.30;;;11.40;99.90;;;;;;5075930;28;20175;-65
2021/07/19 10:24:30;;;;;;;7.53;4.90;;;11.30;99.90;;;;;;5075992;28;20214;-67
2021/07/19 10:26:57;;;;;;;10.20;4.43;;;11.30;99.90;;;;;;5076032;28;20201;-69
2021/07/19 10:29:25;;;;;;;5.87;4.00;;;11.30;99.90;;;;;;5075811;28;20199;-68
2021/07/19 10:31:52;;;;;;;9.43;4.50;;;11.20;99.90;;;;;;5075436;28;20236;-75
2021/07/19 10:34:20;;;;;;;5.67;3.77;;;11.30;99.90;;;;;;5043078;28;20227;-76
2021/07/19 10:36:55;;;;;;;10.27;4.43;;;11.30;99.90;;;;;;5074849;28;20280;-74
2021/07/19 10:39:43;;;;;;;7.87;4.00;;;11.30;99.90;;;;;;5074861;28;20179;-71
2021/07/19 10:42:12;;;;;;;7.27;4.43;;;11.20;99.90;;;;;;5073510;28;20556;-67
2021/07/19 10:44:43;;;;;;;8.83;4.30;;;11.20;99.90;;;;;;5060688;28;20189;-71
2021/07/19 10:47:18;;;;;;;9.67;4.13;;;11.10;99.90;;;;;;5074098;28;20539;-65
2021/07/19 10:50:06;;;;;;;8.10;4.63;;;11.20;99.90;;;;;;5057603;28;20668;-70
2021/07/19 10:52:38;;;;;;;8.37;4.23;;;11.10;99.90;;;;;;5069585;28;20195;-62
2021/07/19 10:55:11;;;;;;;7.93;4.47;;;11.20;99.90;;;;;;5073072;28;20217;-71
2021/07/19 10:57:44;;;;;;;8.47;4.60;;;11.20;99.90;;;;;;5073891;28;20190;-71
2021/07/19 11:00:15;;;;;;;17.73;6.20;;;11.20;99.90;;;;;;5062354;28;20183;-68
2021/07/19 11:02:43;;;;;;;11.73;5.10;;;11.20;99.90;;;;;;5064286;28;20205;-74
2021/07/19 11:05:13;;;;;;;10.87;6.10;;;11.20;99.90;;;;;;5074257;28;20182;-76
2021/07/19 11:07:42;;;;;;;9.97;5.30;;;11.10;99.90;;;;;;5074143;28;20328;-65
2021/07/19 11:10:21;;;;;;;9.10;4.70;;;11.10;99.90;;;;;;5072980;28;20517;-77
2021/07/19 11:12:53;;;;;;;7.17;5.10;;;11.00;99.90;;;;;;5074050;28;20679;-67
2021/07/19 11:15:32;;;;;;;9.30;5.90;;;11.00;99.90;;;;;;5074224;28;20211;-66
2021/07/19 11:18:11;;;;;;;10.23;5.50;;;10.90;99.90;;;;;;5073650;28;20321;-64
2021/07/19 11:20:46;;;;;;;11.33;5.10;;;10.90;99.90;;;;;;5074622;28;20218;-63
2021/07/19 11:23:14;;;;;;;7.07;4.70;;;10.90;99.90;;;;;;5073346;28;20194;-71
2021/07/19 11:25:43;;;;;;;8.90;4.80;;;10.80;99.90;;;;;;5069211;28;20576;-63
2021/07/19 11:28:22;;;;;;;9.90;5.07;;;10.80;99.90;;;;;;5063775;28;20179;-66
2021/07/19 11:31:13;;;;;;;10.27;5.27;;;10.80;99.90;;;;;;5073604;28;20197;-63
2021/07/19 11:33:43;;;;;;;10.83;5.20;;;10.70;99.90;;;;;;5073426;28;20198;-68
2021/07/19 11:36:26;;;;;;;9.20;4.93;;;10.70;99.90;;;;;;5069795;28;20224;-70
2021/07/19 11:38:55;;;;;;;7.30;4.80;;;10.70;99.90;;;;;;5064851;28;20660;-66
2021/07/19 11:41:25;;;;;;;7.60;4.70;;;10.60;99.90;;;;;;5073732;28;20676;-75
2021/07/19 11:43:56;;;;;;;8.50;4.47;;;10.60;99.90;;;;;;5072624;28;20668;-73
2021/07/19 11:46:25;;;;;;;8.37;4.30;;;10.60;99.90;;;;;;5070789;28;20222;-72
2021/07/19 11:49:12;;;;;;;7.93;4.47;;;10.50;99.90;;;;;;5073209;28;20191;-74
2021/07/19 11:51:41;;;;;;;10.73;5.73;;;10.50;99.90;;;;;;5073670;28;20175;-63
2021/07/19 11:54:13;;;;;;;7.90;4.77;;;10.50;99.90;;;;;;5072824;28;20213;-68
2021/07/19 11:56:49;;;;;;;8.83;4.40;;;10.40;99.90;;;;;;5073235;28;20664;-79
2021/07/19 11:59:28;;;;;;;6.73;3.23;;;10.40;99.90;;;;;;5070880;28;20209;-67
2021/07/19 12:01:56;;;;;;;6.17;3.27;;;10.30;99.90;;;;;;5072502;28;20236;-60
2021/07/19 12:04:36;;;;;;;6.97;3.03;;;10.30;99.90;;;;;;5072151;28;20182;-62
2021/07/19 12:07:04;;;;;;;5.97;2.77;;;10.40;99.90;;;;;;5072972;28;20555;-64
2021/07/19 12:09:32;;;;;;;5.83;3.10;;;10.30;99.90;;;;;;5072445;28;20178;-69
2021/07/19 12:12:01;;;;;;;5.13;3.23;;;10.40;99.90;;;;;;5072332;28;20194;-65
2021/07/19 12:14:28;;;;;;;4.93;2.77;;;10.40;99.90;;;;;;5073181;28;20220;-64
2021/07/19 12:16:56;;;;;;;3.70;2.50;;;10.40;99.90;;;;;;5064358;28;20183;-69
2021/07/19 12:19:24;;;;;;;5.70;3.10;;;10.30;99.90;;;;;;5073116;28;20268;-67
2021/07/19 12:21:58;;;;;;;7.00;3.23;;;10.30;99.90;;;;;;5071791;28;20179;-68
2021/07/19 12:24:28;;;;;;;6.20;3.13;;;10.20;99.90;;;;;;5075107;28;20222;-66
2021/07/19 12:26:58;;;;;;;7.73;3.33;;;10.20;99.90;;;;;;5071519;28;20196;-75
2021/07/19 12:29:33;;;;;;;9.53;3.70;;;10.10;99.90;;;;;;5072826;28;20194;-67
2021/07/19 12:32:06;;;;;;;5.77;3.20;;;10.10;99.90;;;;;;5072464;28;20170;-68
2021/07/19 12:34:40;;;;;;;5.90;3.70;;;10.10;99.90;;;;;;5072400;28;20694;-64
2021/07/19 12:37:10;;;;;;;5.30;3.37;;;10.00;99.90;;;;;;5072326;28;20190;-62
2021/07/19 12:39:40;;;;;;;7.67;3.33;;;10.00;99.90;;;;;;5072455;28;20266;-76
2021/07/19 12:42:15;;;;;;;5.90;3.50;;;10.00;99.90;;;;;;5072181;28;20192;-67
2021/07/19 12:45:15;;;;;;;6.23;2.83;;;10.00;99.90;;;;;;5072447;28;20183;-78
2021/07/19 12:47:45;;;;;;;7.73;3.20;;;9.90;99.90;;;;;;5047798;28;20342;-65
2021/07/19 12:50:14;;;;;;;7.83;3.53;;;9.90;99.90;;;;;;5069542;28;20189;-63
2021/07/19 12:52:42;;;;;;;6.07;2.60;;;9.90;99.90;;;;;;5064480;28;20194;-67
2021/07/19 12:55:12;;;;;;;5.23;2.97;;;9.90;99.90;;;;;;5059116;28;20230;-71
2021/07/19 12:57:53;;;;;;;5.53;2.67;;;9.80;99.90;;;;;;5079643;28;20198;-65
2021/07/19 13:00:28;;;;;;;6.13;2.80;;;9.80;99.90;;;;;;5065158;28;20180;-66
2021/07/19 13:03:04;;;;;;;3.70;2.20;;;9.90;99.90;;;;;;5061267;28;20187;-68